.
WxDataArchive / Data Records for 2013-08-26
2013-08-25 August 2013 2013-08-27

Data Records for Monday, 26 August 2013

Time	Temp	Chill	HIndex	Humid	Dewpt	 Wind 	HiWind	WindDir	Rain 	Barom 
-----	----	-----	------	-----	-----	------	------	-------	-----	----- 
00:00	69.4	69.4	69.4	82	63.7	0	0	---	0.00	30.194 
00:05	69.6	69.6	69.6	82	63.9	0	0	---	0.00	30.194 
00:10	69.6	69.6	69.6	82	63.9	0	0	---	0.00	30.194 
00:15	69.6	69.6	69.6	81	63.5	0	0	---	0.00	30.191 
00:20	69.6	69.6	69.6	81	63.5	0	0	---	0.00	30.191 
00:25	69.6	69.6	69.6	81	63.5	0	0	---	0.00	30.191 
00:30	69.4	69.4	69.4	81	63.3	0	0	---	0.00	30.189 
00:35	69.4	69.4	69.4	81	63.3	0	0	---	0.00	30.189 
00:40	69.3	69.3	69.3	81	63.2	0	0	---	0.00	30.189 
00:45	69.1	69.1	69.1	81	63.0	0	0	---	0.00	30.187 
00:50	68.9	68.9	68.9	81	62.8	0	0	---	0.00	30.187 
00:55	68.8	68.8	68.8	82	63.1	0	0	---	0.00	30.187 
01:00	68.6	68.6	68.6	82	62.9	0	0	---	0.00	30.182 
01:05	68.4	68.4	68.4	82	62.7	0	0	---	0.00	30.182 
01:10	68.4	68.4	68.4	82	62.7	0	0	---	0.00	30.182 
01:15	68.3	68.3	68.3	83	62.9	0	0	---	0.00	30.179 
01:20	68.1	68.1	68.1	83	62.7	0	0	---	0.00	30.179 
01:25	68.1	68.1	68.1	83	62.7	0	0	---	0.00	30.179 
01:30	68.1	68.1	68.1	83	62.7	0	0	---	0.00	30.176 
01:35	68.1	68.1	68.1	82	62.4	0	0	---	0.00	30.176 
01:40	68.1	68.1	68.1	82	62.4	0	0	---	0.00	30.176 
01:45	68.1	68.1	68.1	82	62.4	0	0	---	0.00	30.171 
01:50	68.1	68.1	68.1	81	62.0	0	0	---	0.00	30.171 
01:55	68.1	68.1	68.1	81	62.0	0	0	---	0.00	30.171 
02:00	68.1	68.1	68.1	81	62.0	0	0	---	0.00	30.165 
02:05	68.1	68.1	68.1	81	62.0	0	0	---	0.00	30.165 
02:10	67.9	67.9	67.9	81	61.8	0	0	---	0.00	30.165 
02:15	67.9	67.9	67.9	81	61.8	0	0	---	0.00	30.162 
02:20	67.8	67.8	67.8	81	61.7	0	0	---	0.00	30.162 
02:25	67.6	67.6	67.6	81	61.6	0	0	---	0.00	30.162 
02:30	67.4	67.4	67.4	82	61.7	0	0	---	0.00	30.157 
02:35	67.3	67.3	67.3	82	61.6	0	0	---	0.00	30.157 
02:40	67.1	67.1	67.1	82	61.4	0	0	---	0.00	30.157 
02:45	66.9	66.9	66.9	83	61.6	0	0	---	0.00	30.147 
02:50	66.8	66.8	66.8	83	61.5	0	0	---	0.00	30.147 
02:55	66.6	66.6	66.6	83	61.3	0	0	---	0.00	30.147 
03:00	66.4	66.4	66.4	84	61.4	0	0	---	0.00	30.146 
03:05	66.4	66.4	66.4	84	61.4	0	0	---	0.00	30.146 
03:10	66.3	66.3	66.3	84	61.3	0	0	---	0.00	30.146 
03:15	66.3	66.3	66.3	84	61.3	0	0	---	0.00	30.134 
03:20	66.3	66.3	66.3	84	61.3	0	0	---	0.00	30.134 
03:25	66.4	66.4	66.4	84	61.4	0	0	---	0.00	30.134 
03:30	66.6	66.6	66.6	84	61.6	0	0	---	0.00	30.131 
03:35	66.6	66.6	66.6	83	61.3	0	0	---	0.00	30.131 
03:40	66.8	66.8	66.8	83	61.5	0	0	---	0.00	30.131 
03:45	66.8	66.8	66.8	83	61.5	0	0	---	0.00	30.134 
03:50	66.8	66.8	66.8	82	61.1	0	0	---	0.00	30.134 
03:55	66.9	66.9	66.9	82	61.2	0	0	---	0.00	30.134 
04:00	66.9	66.9	66.9	81	60.9	0	1	338	0.00	30.137 
04:05	67.1	67.1	67.1	81	61.1	0	0	---	0.00	30.137 
04:10	67.1	67.1	67.1	81	61.1	0	1	338	0.00	30.137 
04:15	67.3	67.3	67.3	81	61.3	0	0	---	0.00	30.143 
04:20	67.3	67.3	67.3	80	60.9	0	1	338	0.00	30.143 
04:25	67.3	67.3	67.3	80	60.9	0	0	---	0.00	30.143 
04:30	67.3	67.3	67.3	80	60.9	0	1	338	0.00	30.145 
04:35	67.3	67.3	67.3	79	60.6	0	1	338	0.00	30.145 
04:40	67.1	67.1	67.1	79	60.4	0	0	---	0.00	30.145 
04:45	67.1	67.1	67.1	79	60.4	0	0	---	0.00	30.150 
04:50	66.9	66.9	66.9	79	60.2	0	0	---	0.00	30.150 
04:55	66.8	66.8	66.8	79	60.1	0	0	---	0.00	30.150 
05:00	66.6	66.6	66.6	79	59.9	0	0	---	0.00	30.149 
05:05	66.3	66.3	66.3	80	59.9	0	0	---	0.00	30.149 
05:10	66.1	66.1	66.1	80	59.7	0	0	---	0.00	30.149 
05:15	65.8	65.8	65.8	80	59.5	0	0	---	0.00	30.157 
05:20	65.6	65.6	65.6	81	59.6	0	0	---	0.00	30.157 
05:25	65.5	65.5	65.5	81	59.5	0	0	---	0.00	30.157 
05:30	65.2	65.2	65.2	82	59.6	0	0	---	0.00	30.152 
05:35	65.0	65.0	65.0	82	59.4	0	0	---	0.00	30.152 
05:40	64.8	64.8	64.8	83	59.5	0	0	---	0.00	30.152 
05:45	64.7	64.7	64.7	83	59.4	0	0	---	0.00	30.155 
05:50	64.3	64.3	64.3	83	59.0	0	0	---	0.00	30.155 
05:55	64.2	64.2	64.2	84	59.3	0	0	---	0.00	30.155 
06:00	64.0	64.0	64.0	84	59.1	0	0	---	0.00	30.153 
06:05	63.9	63.9	63.9	84	59.0	0	0	---	0.00	30.153 
06:10	63.9	63.9	63.9	84	59.0	0	0	---	0.00	30.153 
06:15	63.7	63.7	63.7	85	59.1	0	0	---	0.00	30.150 
06:20	63.5	63.5	63.5	85	58.9	0	0	---	0.00	30.150 
06:25	63.5	63.5	63.5	85	58.9	0	0	---	0.00	30.150 
06:30	63.4	63.4	63.4	86	59.1	0	0	---	0.00	30.146 
06:35	63.4	63.4	63.4	86	59.1	0	0	---	0.00	30.146 
06:40	63.4	63.4	63.4	86	59.1	0	0	---	0.00	30.146 
06:45	63.5	63.5	63.5	86	59.2	0	0	---	0.00	30.151 
06:50	63.5	63.5	63.5	86	59.2	0	0	---	0.00	30.151 
06:55	63.5	63.5	63.5	86	59.2	0	0	---	0.00	30.151 
07:00	63.5	63.5	63.5	86	59.2	0	0	---	0.00	30.152 
07:05	63.7	63.7	63.7	86	59.4	0	0	---	0.00	30.152 
07:10	63.7	63.7	63.7	86	59.4	0	0	---	0.00	30.152 
07:15	63.7	63.7	63.7	85	59.1	0	0	---	0.00	30.158 
07:20	63.9	63.9	63.9	85	59.3	0	0	---	0.00	30.158 
07:25	64.2	64.2	64.2	85	59.6	0	0	---	0.00	30.158 
07:30	64.5	64.5	64.5	84	59.6	0	0	---	0.00	30.167 
07:35	65.0	65.0	65.0	83	59.7	0	1	338	0.00	30.167 
07:40	65.5	65.5	65.5	82	59.9	0	1	338	0.00	30.167 
07:45	66.0	66.0	66.0	81	60.0	0	1	338	0.00	30.171 
07:50	66.4	66.4	66.4	80	60.0	0	1	338	0.00	30.171 
07:55	66.9	66.9	66.9	78	59.8	0	1	338	0.00	30.171 
08:00	67.4	67.4	67.4	77	59.9	0	1	338	0.00	30.170 
08:05	67.9	67.9	67.9	77	60.4	0	0	---	0.00	30.170 
08:10	68.4	68.4	68.4	75	60.2	0	0	---	0.00	30.170 
08:15	68.9	68.9	68.9	74	60.3	0	1	338	0.00	30.177 
08:20	69.3	69.3	69.3	73	60.3	0	0	---	0.00	30.177 
08:25	69.8	69.8	69.8	72	60.4	0	1	338	0.00	30.177 
08:30	70.1	70.1	70.1	71	60.2	0	1	338	0.00	30.170 
08:35	70.6	70.6	70.6	71	60.7	0	1	338	0.00	30.170 
08:40	70.9	70.9	70.9	70	60.6	0	0	---	0.00	30.170 
08:45	71.3	71.3	71.3	70	61.0	0	1	338	0.00	30.171 
08:50	71.6	71.6	71.6	68	60.5	0	1	338	0.00	30.171 
08:55	71.8	71.8	71.8	68	60.7	0	1	338	0.00	30.171 
09:00	72.3	72.3	72.3	68	61.1	0	1	338	0.00	30.167 
09:05	72.7	72.7	72.7	67	61.1	0	1	338	0.00	30.167 
09:10	73.0	73.0	73.0	65	60.5	1	2	338	0.00	30.167 
09:15	73.2	73.2	73.2	65	60.7	0	1	338	0.00	30.168 
09:20	73.7	73.7	73.7	65	61.2	0	1	338	0.00	30.168 
09:25	73.9	73.9	73.9	65	61.4	0	1	338	0.00	30.168 
09:30	74.4	74.4	74.4	65	61.8	0	1	338	0.00	30.157 
09:35	74.7	74.7	74.7	65	62.1	0	2	338	0.00	30.157 
09:40	75.1	75.1	77.1	66	62.9	0	1	338	0.00	30.157 
09:45	75.4	75.4	77.3	66	63.2	0	1	338	0.00	30.156 
09:50	75.8	75.8	77.7	66	63.6	0	1	338	0.00	30.156 
09:55	76.5	76.5	78.3	66	64.3	1	4	338	0.00	30.156 
10:00	77.0	77.0	78.8	66	64.8	1	2	315	0.00	30.149 
10:05	77.6	77.6	79.4	66	65.3	1	3	315	0.00	30.149 
10:10	78.1	78.1	80.0	65	65.4	2	4	292	0.00	30.149 
10:15	78.3	78.3	80.2	65	65.5	2	4	270	0.00	30.147 
10:20	78.5	78.5	80.4	64	65.3	2	4	270	0.00	30.147 
10:25	78.3	78.3	80.2	64	65.1	2	4	270	0.00	30.147 
10:30	78.3	78.3	80.2	65	65.5	1	5	270	0.00	30.150 
10:35	78.3	78.3	80.2	65	65.5	1	3	270	0.00	30.150 
10:40	78.6	78.6	80.4	63	64.9	1	4	270	0.00	30.150 
10:45	79.0	79.0	80.9	63	65.3	3	5	270	0.00	30.150 
10:50	79.4	79.4	81.5	64	66.1	2	6	270	0.00	30.150 
10:55	79.8	79.8	82.0	64	66.5	2	5	270	0.00	30.150 
11:00	80.1	80.1	82.4	64	66.8	2	5	270	0.00	30.149 
11:05	80.3	80.3	82.7	64	67.0	2	4	270	0.00	30.149 
11:10	80.5	80.5	82.8	63	66.7	2	4	270	0.00	30.149 
11:15	80.9	80.9	83.5	64	67.6	2	5	270	0.00	30.149 
11:20	81.1	81.1	83.6	63	67.3	3	6	270	0.00	30.149 
11:25	81.4	81.4	83.9	62	67.1	2	4	270	0.00	30.149 
11:30	82.0	82.0	84.8	62	67.7	2	5	270	0.00	30.140 
11:35	82.4	82.4	85.2	61	67.6	2	6	338	0.00	30.140 
11:40	82.8	82.8	86.1	62	68.4	2	6	270	0.00	30.140 
11:45	82.8	82.8	85.6	60	67.5	2	5	270	0.00	30.136 
11:50	82.8	82.8	85.6	60	67.5	2	5	270	0.00	30.136 
11:55	83.0	83.0	86.1	61	68.1	1	4	270	0.00	30.136 
12:00	83.0	83.0	85.9	60	67.7	2	4	315	0.00	30.143 
12:05	82.8	82.8	85.8	61	67.9	2	5	315	0.00	30.143 
12:10	82.8	82.8	85.8	61	67.9	3	7	270	0.00	30.143 
12:15	82.8	82.8	85.8	61	67.9	3	5	270	0.00	30.141 
12:20	82.8	82.8	85.8	61	67.9	3	7	270	0.00	30.141 
12:25	83.0	83.0	85.9	60	67.7	3	9	292	0.00	30.141 
12:30	83.2	83.2	86.2	60	67.8	2	4	270	0.00	30.135 
12:35	83.4	83.4	86.5	60	68.0	1	5	270	0.00	30.135 
12:40	83.4	83.4	86.1	58	67.0	2	4	270	0.00	30.135 
12:45	83.2	83.2	86.0	59	67.4	2	4	270	0.00	30.131 
12:50	83.4	83.4	86.1	58	67.0	2	5	270	0.00	30.131 
12:55	83.8	83.8	86.4	57	66.9	2	5	270	0.00	30.131 
13:00	84.1	84.1	86.9	57	67.2	2	4	292	0.00	30.122 
13:05	84.3	84.3	86.5	54	65.8	3	5	315	0.00	30.122 
13:10	84.7	84.7	87.0	54	66.2	2	5	270	0.00	30.122 
13:15	85.1	85.1	87.9	55	67.1	2	5	270	0.00	30.115 
13:20	85.7	85.7	88.3	53	66.6	2	4	270	0.00	30.115 
13:25	85.7	85.7	88.3	53	66.6	2	5	270	0.00	30.115 
13:30	85.7	85.7	88.0	52	66.0	2	3	270	0.00	30.101 
13:35	85.7	85.7	87.7	51	65.5	2	4	270	0.00	30.101 
13:40	86.1	86.1	88.6	52	66.4	2	4	270	0.00	30.101 
13:45	86.1	86.1	88.6	52	66.4	2	3	270	0.00	30.099 
13:50	86.3	86.3	88.9	52	66.6	1	5	270	0.00	30.099 
13:55	86.3	86.3	89.6	54	67.7	1	4	270	0.00	30.099 
14:00	86.5	86.5	89.6	53	67.3	1	3	270	0.00	30.086 
14:05	86.5	86.5	89.3	52	66.7	2	5	270	0.00	30.086 
14:10	87.0	87.0	90.4	53	67.8	2	4	270	0.00	30.086 
14:15	87.2	87.2	90.8	53	67.9	1	5	270	0.00	30.085 
14:20	87.2	87.2	90.1	51	66.8	1	4	270	0.00	30.085 
14:25	86.7	86.7	89.6	52	66.9	1	5	270	0.00	30.085 
14:30	86.3	86.3	88.9	52	66.6	1	3	270	0.00	30.081 
14:35	85.9	85.9	88.0	51	65.6	1	4	270	0.00	30.081 
14:40	85.7	85.7	88.0	52	66.0	1	4	270	0.00	30.081 
14:45	85.9	85.9	88.3	52	66.2	1	3	270	0.00	30.071 
14:50	86.3	86.3	88.9	52	66.6	1	3	270	0.00	30.071 
14:55	87.0	87.0	89.4	50	66.1	1	4	270	0.00	30.071 
15:00	87.4	87.4	89.7	49	65.9	2	4	270	0.00	30.066 
15:05	87.8	87.8	89.7	47	65.0	3	5	270	0.00	30.066 
15:10	88.2	88.2	89.7	45	64.1	1	5	270	0.00	30.066 
15:15	88.8	88.8	90.2	44	64.0	1	5	270	0.00	30.059 
15:20	89.0	89.0	90.9	45	64.9	1	4	270	0.00	30.059 
15:25	88.6	88.6	90.3	45	64.5	2	4	270	0.00	30.059 
15:30	88.4	88.4	90.3	46	64.9	2	6	292	0.00	30.052 
15:35	88.6	88.6	90.3	45	64.5	2	4	292	0.00	30.052 
15:40	88.8	88.8	91.3	47	65.9	1	3	270	0.00	30.052 
15:45	88.8	88.8	91.6	48	66.5	1	4	270	0.00	30.037 
15:50	88.2	88.2	90.3	47	65.4	2	4	270	0.00	30.037 
15:55	87.8	87.8	90.4	49	66.2	1	3	270	0.00	30.037 
16:00	87.6	87.6	90.4	50	66.6	1	3	270	0.00	30.037 
16:05	87.2	87.2	89.4	49	65.7	1	3	270	0.00	30.037 
16:10	87.0	87.0	89.4	50	66.1	1	3	270	0.00	30.037 
16:15	86.7	86.7	89.3	51	66.4	1	3	270	0.00	30.033 
16:20	87.0	87.0	89.4	50	66.1	1	3	315	0.00	30.033 
16:25	87.2	87.2	89.7	50	66.3	1	3	315	0.00	30.033 
16:30	87.4	87.4	90.1	50	66.4	1	3	270	0.00	30.026 
16:35	87.8	87.8	90.4	49	66.2	2	5	270	0.00	30.026 
16:40	87.8	87.8	90.0	48	65.6	2	5	315	0.00	30.026 
16:45	88.0	88.0	90.7	49	66.4	1	3	292	0.00	30.022 
16:50	88.2	88.2	90.3	47	65.4	1	5	270	0.00	30.022 
16:55	88.2	88.2	90.7	48	66.0	1	5	270	0.00	30.022 
17:00	88.2	88.2	90.3	47	65.4	2	5	270	0.00	30.021 
17:05	88.4	88.4	90.3	46	64.9	2	5	270	0.00	30.021 
17:10	88.4	88.4	91.0	48	66.2	2	5	270	0.00	30.021 
17:15	88.4	88.4	90.6	47	65.6	1	4	270	0.00	30.023 
17:20	88.0	88.0	89.4	45	64.0	2	4	292	0.00	30.023 
17:25	87.4	87.4	89.4	48	65.3	2	4	292	0.00	30.023 
17:30	86.7	86.7	88.6	49	65.2	1	4	292	0.00	30.027 
17:35	86.3	86.3	88.3	50	65.4	1	4	292	0.00	30.027 
17:40	86.3	86.3	88.3	50	65.4	1	5	292	0.00	30.027 
17:45	86.3	86.3	88.3	50	65.4	1	5	315	0.00	30.026 
17:50	86.3	86.3	88.3	50	65.4	1	3	270	0.00	30.026 
17:55	86.5	86.5	88.9	51	66.2	2	4	270	0.00	30.026 
18:00	86.7	86.7	88.9	50	65.8	2	4	292	0.00	30.026 
18:05	86.5	86.5	88.6	50	65.6	1	4	292	0.00	30.026 
18:10	86.3	86.3	88.9	52	66.6	1	3	315	0.00	30.026 
18:15	86.1	86.1	88.6	52	66.4	1	3	292	0.00	30.030 
18:20	85.9	85.9	88.3	52	66.2	2	4	270	0.00	30.030 
18:25	85.5	85.5	88.0	53	66.4	1	4	270	0.00	30.030 
18:30	85.3	85.3	87.7	53	66.2	2	4	270	0.00	30.031 
18:35	85.3	85.3	88.0	54	66.7	1	5	292	0.00	30.031 
18:40	85.1	85.1	87.7	54	66.6	1	4	270	0.00	30.031 
18:45	84.7	84.7	86.5	52	65.1	2	4	270	0.00	30.030 
18:50	84.7	84.7	86.8	53	65.6	2	5	270	0.00	30.030 
18:55	84.5	84.5	86.5	53	65.5	1	3	270	0.00	30.030 
19:00	84.5	84.5	86.7	54	66.0	1	3	270	0.00	30.027 
19:05	84.3	84.3	86.5	54	65.8	1	3	270	0.00	30.027 
19:10	84.1	84.1	86.2	54	65.6	1	3	270	0.00	30.027 
19:15	84.1	84.1	86.4	55	66.2	1	4	270	0.00	30.025 
19:20	84.0	84.0	86.3	55	66.1	1	3	270	0.00	30.025 
19:25	84.0	84.0	86.5	56	66.6	1	3	270	0.00	30.025 
19:30	83.8	83.8	86.4	57	66.9	1	3	292	0.00	30.024 
19:35	83.6	83.6	86.4	58	67.2	0	2	292	0.00	30.024 
19:40	83.4	83.4	85.8	57	66.5	0	1	292	0.00	30.024 
19:45	83.2	83.2	85.8	58	66.9	0	2	292	0.00	30.024 
19:50	83.0	83.0	85.5	58	66.7	0	2	292	0.00	30.024 
19:55	82.8	82.8	85.4	59	67.0	1	3	270	0.00	30.024 
20:00	82.8	82.8	85.4	59	67.0	1	2	270	0.00	30.024 
20:05	82.6	82.6	85.3	60	67.3	1	3	270	0.00	30.024 
20:10	82.4	82.4	85.2	61	67.6	0	2	270	0.00	30.024 
20:15	82.2	82.2	84.9	61	67.4	1	3	270	0.00	30.021 
20:20	82.0	82.0	84.8	62	67.7	0	2	270	0.00	30.021 
20:25	81.8	81.8	84.7	63	67.9	0	1	270	0.00	30.021 
20:30	81.4	81.4	84.1	63	67.6	0	1	270	0.00	30.019 
20:35	81.2	81.2	84.0	64	67.8	0	1	270	0.00	30.019 
20:40	81.1	81.1	83.8	64	67.7	0	1	270	0.00	30.019 
20:45	80.9	80.9	83.7	65	68.0	0	1	270	0.00	30.021 
20:50	80.9	80.9	83.7	65	68.0	0	1	270	0.00	30.021 
20:55	80.7	80.7	83.5	66	68.3	0	0	---	0.00	30.021 
21:00	80.5	80.5	83.2	66	68.1	0	0	---	0.00	30.018 
21:05	80.1	80.1	82.7	67	68.1	0	1	270	0.00	30.018 
21:10	80.1	80.1	82.7	67	68.1	0	1	270	0.00	30.018 
21:15	79.9	79.9	82.6	68	68.4	0	2	270	0.00	30.019 
21:20	79.9	79.9	82.6	68	68.4	0	1	270	0.00	30.019 
21:25	79.8	79.8	82.4	68	68.3	0	1	270	0.00	30.019 
21:30	79.6	79.6	82.2	69	68.5	0	1	270	0.00	30.014 
21:35	79.6	79.6	82.2	69	68.5	0	1	270	0.00	30.014 
21:40	79.6	79.6	82.2	69	68.5	0	1	270	0.00	30.014 
21:45	79.4	79.4	81.9	69	68.3	0	2	270	0.00	30.015 
21:50	79.4	79.4	81.9	69	68.3	0	1	270	0.00	30.015 
21:55	79.2	79.2	81.7	70	68.5	0	1	270	0.00	30.015 
22:00	79.0	79.0	81.4	70	68.4	0	0	---	0.00	30.013 
22:05	79.0	79.0	81.5	71	68.8	0	1	270	0.00	30.013 
22:10	78.8	78.8	81.3	72	69.0	0	1	270	0.00	30.013 
22:15	78.6	78.6	81.0	72	68.8	0	1	270	0.00	30.008 
22:20	78.6	78.6	81.0	73	69.2	0	1	270	0.00	30.008 
22:25	78.5	78.5	80.9	73	69.1	0	1	270	0.00	30.008 
22:30	78.5	78.5	80.9	73	69.1	0	1	270	0.00	30.009 
22:35	78.3	78.3	80.6	73	68.9	0	2	270	0.00	30.009 
22:40	78.3	78.3	80.6	73	68.9	0	2	270	0.00	30.009 
22:45	78.3	78.3	80.5	72	68.5	0	1	270	0.00	30.004 
22:50	78.1	78.1	80.2	72	68.3	0	1	270	0.00	30.004 
22:55	78.1	78.1	80.2	72	68.3	0	2	270	0.00	30.004 
23:00	78.1	78.1	80.2	72	68.3	0	1	270	0.00	30.005 
23:05	78.1	78.1	80.2	72	68.3	0	2	270	0.00	30.005 
23:10	78.1	78.1	80.2	72	68.3	0	2	270	0.00	30.005 
23:15	78.1	78.1	80.2	72	68.3	0	2	270	0.00	30.005 
23:20	77.9	77.9	79.9	72	68.1	0	3	270	0.00	30.005 
23:25	77.9	77.9	79.9	72	68.1	0	1	270	0.00	30.005 
23:30	77.7	77.7	79.7	72	67.9	0	1	270	0.00	30.004 
23:35	77.7	77.7	79.7	72	67.9	0	3	270	0.00	30.004 
23:40	77.6	77.6	79.5	73	68.2	0	1	270	0.00	30.004 
23:45	77.4	77.4	79.3	73	68.0	0	2	270	0.00	30.007 
23:50	77.4	77.4	79.3	73	68.0	0	2	270	0.00	30.007 
23:55	77.2	77.2	79.0	73	67.9	0	2	270	0.00	30.007 

CoCoRaHS
IN-AL-39
A2 Web Hosting
Creative Commons License
GoDaddy
search engine by freefind advanced

loaded 2018-11-19 10:33:14 • last modified 2010-11-18 10:43:29
Privacy PolicyDisclaimer
• wx.awcolley.com is powered by PmWiki v.2002016 •
• all content (unless otherwise noted) © 2018 A W Colley